sensor_id;sensor_type;location;lat;lon;timestamp;P1;durP1;ratioP1;P2;durP2;ratioP2
43696;SDS011;29301;47.620;19.560;2022-11-20T00:01:45;1.20;;;0.80;;
43696;SDS011;29301;47.620;19.560;2022-11-20T00:04:10;1.10;;;0.70;;
43696;SDS011;29301;47.620;19.560;2022-11-20T00:06:37;1.20;;;0.80;;
43696;SDS011;29301;47.620;19.560;2022-11-20T00:09:02;1.05;;;0.70;;
43696;SDS011;29301;47.620;19.560;2022-11-20T00:11:30;1.13;;;0.80;;
43696;SDS011;29301;47.620;19.560;2022-11-20T00:13:57;1.13;;;0.80;;
43696;SDS011;29301;47.620;19.560;2022-11-20T00:16:25;1.10;;;0.80;;
43696;SDS011;29301;47.620;19.560;2022-11-20T00:18:51;1.20;;;0.80;;
43696;SDS011;29301;47.620;19.560;2022-11-20T00:21:19;1.20;;;0.80;;
43696;SDS011;29301;47.620;19.560;2022-11-20T00:23:49;1.20;;;0.80;;
43696;SDS011;29301;47.620;19.560;2022-11-20T00:26:17;1.20;;;0.80;;
43696;SDS011;29301;47.620;19.560;2022-11-20T00:28:48;1.20;;;0.80;;
43696;SDS011;29301;47.620;19.560;2022-11-20T00:31:15;1.20;;;0.80;;
43696;SDS011;29301;47.620;19.560;2022-11-20T00:33:41;1.20;;;0.80;;
43696;SDS011;29301;47.620;19.560;2022-11-20T00:36:09;1.10;;;0.80;;
43696;SDS011;29301;47.620;19.560;2022-11-20T00:38:36;1.20;;;0.80;;
43696;SDS011;29301;47.620;19.560;2022-11-20T00:41:06;1.20;;;0.80;;
43696;SDS011;29301;47.620;19.560;2022-11-20T00:43:33;1.20;;;0.73;;
43696;SDS011;29301;47.620;19.560;2022-11-20T00:46:00;1.20;;;0.80;;
43696;SDS011;29301;47.620;19.560;2022-11-20T00:48:30;1.10;;;0.70;;
43696;SDS011;29301;47.620;19.560;2022-11-20T00:50:56;1.20;;;0.80;;
43696;SDS011;29301;47.620;19.560;2022-11-20T00:53:22;1.20;;;0.80;;
43696;SDS011;29301;47.620;19.560;2022-11-20T00:55:52;1.20;;;0.80;;
43696;SDS011;29301;47.620;19.560;2022-11-20T01:00:48;1.20;;;0.80;;
43696;SDS011;29301;47.620;19.560;2022-11-20T01:03:15;1.10;;;0.80;;
43696;SDS011;29301;47.620;19.560;2022-11-20T01:05:41;1.05;;;0.70;;
43696;SDS011;29301;47.620;19.560;2022-11-20T01:08:07;1.20;;;0.80;;
43696;SDS011;29301;47.620;19.560;2022-11-20T01:10:33;1.17;;;0.80;;
43696;SDS011;29301;47.620;19.560;2022-11-20T01:12:58;1.20;;;0.80;;
43696;SDS011;29301;47.620;19.560;2022-11-20T01:15:43;1.20;;;0.80;;
43696;SDS011;29301;47.620;19.560;2022-11-20T01:18:08;1.20;;;0.80;;
43696;SDS011;29301;47.620;19.560;2022-11-20T01:20:35;1.20;;;0.80;;
43696;SDS011;29301;47.620;19.560;2022-11-20T01:23:01;1.20;;;0.80;;
43696;SDS011;29301;47.620;19.560;2022-11-20T01:25:30;1.20;;;0.80;;
43696;SDS011;29301;47.620;19.560;2022-11-20T01:27:55;1.30;;;0.80;;
43696;SDS011;29301;47.620;19.560;2022-11-20T01:30:21;1.20;;;0.80;;
43696;SDS011;29301;47.620;19.560;2022-11-20T01:32:47;1.20;;;0.80;;
43696;SDS011;29301;47.620;19.560;2022-11-20T01:35:12;1.20;;;0.80;;
43696;SDS011;29301;47.620;19.560;2022-11-20T01:37:38;1.20;;;0.80;;
43696;SDS011;29301;47.620;19.560;2022-11-20T01:40:04;1.10;;;0.70;;
43696;SDS011;29301;47.620;19.560;2022-11-20T01:42:30;1.20;;;0.80;;
43696;SDS011;29301;47.620;19.560;2022-11-20T01:48:12;1.20;;;0.80;;
43696;SDS011;29301;47.620;19.560;2022-11-20T01:50:38;1.20;;;0.90;;
43696;SDS011;29301;47.620;19.560;2022-11-20T01:53:07;1.20;;;0.80;;
43696;SDS011;29301;47.620;19.560;2022-11-20T01:55:36;1.20;;;0.80;;
43696;SDS011;29301;47.620;19.560;2022-11-20T01:58:05;1.20;;;0.80;;
43696;SDS011;29301;47.620;19.560;2022-11-20T02:00:31;1.30;;;0.85;;
43696;SDS011;29301;47.620;19.560;2022-11-20T02:02:57;1.20;;;0.82;;
43696;SDS011;29301;47.620;19.560;2022-11-20T02:08:20;1.20;;;0.80;;
43696;SDS011;29301;47.620;19.560;2022-11-20T02:10:46;1.20;;;0.80;;
43696;SDS011;29301;47.620;19.560;2022-11-20T02:13:12;1.20;;;0.90;;
43696;SDS011;29301;47.620;19.560;2022-11-20T02:15:56;1.30;;;0.90;;
43696;SDS011;29301;47.620;19.560;2022-11-20T02:18:22;1.20;;;0.80;;
43696;SDS011;29301;47.620;19.560;2022-11-20T02:20:49;1.20;;;0.80;;
43696;SDS011;29301;47.620;19.560;2022-11-20T02:23:52;1.30;;;0.90;;
43696;SDS011;29301;47.620;19.560;2022-11-20T02:26:28;1.20;;;0.80;;
43696;SDS011;29301;47.620;19.560;2022-11-20T02:28:55;1.20;;;0.80;;
43696;SDS011;29301;47.620;19.560;2022-11-20T02:31:21;1.20;;;0.80;;
43696;SDS011;29301;47.620;19.560;2022-11-20T02:33:47;1.17;;;0.80;;
43696;SDS011;29301;47.620;19.560;2022-11-20T02:36:15;1.30;;;0.90;;
43696;SDS011;29301;47.620;19.560;2022-11-20T02:38:41;1.27;;;0.88;;
43696;SDS011;29301;47.620;19.560;2022-11-20T02:41:08;1.30;;;0.90;;
43696;SDS011;29301;47.620;19.560;2022-11-20T02:43:34;1.20;;;0.80;;
43696;SDS011;29301;47.620;19.560;2022-11-20T02:46:00;1.30;;;0.90;;
43696;SDS011;29301;47.620;19.560;2022-11-20T02:48:25;1.20;;;0.80;;
43696;SDS011;29301;47.620;19.560;2022-11-20T02:50:51;1.30;;;0.90;;
43696;SDS011;29301;47.620;19.560;2022-11-20T02:53:16;1.23;;;0.90;;
43696;SDS011;29301;47.620;19.560;2022-11-20T02:55:42;1.20;;;0.80;;
43696;SDS011;29301;47.620;19.560;2022-11-20T02:58:08;1.10;;;0.80;;
43696;SDS011;29301;47.620;19.560;2022-11-20T03:00:33;1.20;;;0.80;;
43696;SDS011;29301;47.620;19.560;2022-11-20T03:03:01;1.20;;;0.80;;
43696;SDS011;29301;47.620;19.560;2022-11-20T03:05:27;1.20;;;0.80;;
43696;SDS011;29301;47.620;19.560;2022-11-20T03:07:52;1.20;;;0.80;;
43696;SDS011;29301;47.620;19.560;2022-11-20T03:10:18;1.20;;;0.80;;
43696;SDS011;29301;47.620;19.560;2022-11-20T03:12:43;1.10;;;0.80;;
43696;SDS011;29301;47.620;19.560;2022-11-20T03:15:10;1.20;;;0.80;;
43696;SDS011;29301;47.620;19.560;2022-11-20T03:17:36;1.20;;;0.80;;
43696;SDS011;29301;47.620;19.560;2022-11-20T03:20:02;1.20;;;0.80;;
43696;SDS011;29301;47.620;19.560;2022-11-20T03:22:31;1.20;;;0.80;;
43696;SDS011;29301;47.620;19.560;2022-11-20T03:24:56;1.20;;;0.80;;
43696;SDS011;29301;47.620;19.560;2022-11-20T03:27:22;1.20;;;0.80;;
43696;SDS011;29301;47.620;19.560;2022-11-20T03:29:48;1.20;;;0.80;;
43696;SDS011;29301;47.620;19.560;2022-11-20T03:32:13;1.20;;;0.80;;
43696;SDS011;29301;47.620;19.560;2022-11-20T03:34:39;1.13;;;0.80;;
43696;SDS011;29301;47.620;19.560;2022-11-20T03:37:04;1.15;;;0.80;;
43696;SDS011;29301;47.620;19.560;2022-11-20T03:39:30;1.20;;;0.80;;
43696;SDS011;29301;47.620;19.560;2022-11-20T03:41:56;1.20;;;0.80;;
43696;SDS011;29301;47.620;19.560;2022-11-20T03:44:22;1.20;;;0.80;;
43696;SDS011;29301;47.620;19.560;2022-11-20T03:46:47;1.20;;;0.80;;
43696;SDS011;29301;47.620;19.560;2022-11-20T03:49:13;1.20;;;0.80;;
43696;SDS011;29301;47.620;19.560;2022-11-20T03:51:39;1.20;;;0.80;;
43696;SDS011;29301;47.620;19.560;2022-11-20T03:54:05;1.20;;;0.80;;
43696;SDS011;29301;47.620;19.560;2022-11-20T03:56:34;1.20;;;0.80;;
43696;SDS011;29301;47.620;19.560;2022-11-20T03:59:01;1.10;;;0.80;;
43696;SDS011;29301;47.620;19.560;2022-11-20T04:01:29;1.10;;;0.80;;
43696;SDS011;29301;47.620;19.560;2022-11-20T04:03:56;1.20;;;0.90;;
43696;SDS011;29301;47.620;19.560;2022-11-20T04:06:43;1.20;;;0.80;;
43696;SDS011;29301;47.620;19.560;2022-11-20T04:09:08;1.20;;;0.80;;
43696;SDS011;29301;47.620;19.560;2022-11-20T04:11:35;1.20;;;0.80;;
43696;SDS011;29301;47.620;19.560;2022-11-20T04:14:04;1.20;;;0.80;;
43696;SDS011;29301;47.620;19.560;2022-11-20T04:16:32;1.20;;;0.80;;
43696;SDS011;29301;47.620;19.560;2022-11-20T04:19:00;1.20;;;0.80;;
43696;SDS011;29301;47.620;19.560;2022-11-20T04:21:27;1.10;;;0.80;;
43696;SDS011;29301;47.620;19.560;2022-11-20T04:23:53;1.20;;;0.90;;
43696;SDS011;29301;47.620;19.560;2022-11-20T04:26:20;1.20;;;0.80;;
43696;SDS011;29301;47.620;19.560;2022-11-20T04:28:47;1.20;;;0.80;;
43696;SDS011;29301;47.620;19.560;2022-11-20T04:31:17;1.20;;;0.80;;
43696;SDS011;29301;47.620;19.560;2022-11-20T04:33:47;1.20;;;0.80;;
43696;SDS011;29301;47.620;19.560;2022-11-20T04:36:15;1.20;;;0.80;;
43696;SDS011;29301;47.620;19.560;2022-11-20T04:38:42;1.20;;;0.80;;
43696;SDS011;29301;47.620;19.560;2022-11-20T04:41:10;1.20;;;0.80;;
43696;SDS011;29301;47.620;19.560;2022-11-20T04:43:45;1.20;;;0.80;;
43696;SDS011;29301;47.620;19.560;2022-11-20T04:46:16;1.27;;;0.90;;
43696;SDS011;29301;47.620;19.560;2022-11-20T04:48:42;1.20;;;0.80;;
43696;SDS011;29301;47.620;19.560;2022-11-20T04:51:08;1.20;;;0.80;;
43696;SDS011;29301;47.620;19.560;2022-11-20T04:53:33;1.20;;;0.80;;
43696;SDS011;29301;47.620;19.560;2022-11-20T04:56:03;1.20;;;0.80;;
43696;SDS011;29301;47.620;19.560;2022-11-20T04:58:31;1.15;;;0.80;;
43696;SDS011;29301;47.620;19.560;2022-11-20T05:01:00;1.20;;;0.80;;
43696;SDS011;29301;47.620;19.560;2022-11-20T05:03:30;1.20;;;0.80;;
43696;SDS011;29301;47.620;19.560;2022-11-20T05:05:57;1.20;;;0.80;;
43696;SDS011;29301;47.620;19.560;2022-11-20T05:08:25;1.20;;;0.80;;
43696;SDS011;29301;47.620;19.560;2022-11-20T05:10:51;1.20;;;0.80;;
43696;SDS011;29301;47.620;19.560;2022-11-20T05:13:17;1.20;;;0.80;;
43696;SDS011;29301;47.620;19.560;2022-11-20T05:15:42;1.10;;;0.80;;
43696;SDS011;29301;47.620;19.560;2022-11-20T05:18:08;1.20;;;0.80;;
43696;SDS011;29301;47.620;19.560;2022-11-20T05:20:34;1.13;;;0.80;;
43696;SDS011;29301;47.620;19.560;2022-11-20T05:23:01;1.20;;;0.80;;
43696;SDS011;29301;47.620;19.560;2022-11-20T05:25:26;1.20;;;0.80;;
43696;SDS011;29301;47.620;19.560;2022-11-20T05:27:52;1.10;;;0.80;;
43696;SDS011;29301;47.620;19.560;2022-11-20T05:30:18;1.20;;;0.80;;
43696;SDS011;29301;47.620;19.560;2022-11-20T05:32:44;1.10;;;0.80;;
43696;SDS011;29301;47.620;19.560;2022-11-20T05:35:10;1.20;;;0.80;;
43696;SDS011;29301;47.620;19.560;2022-11-20T05:37:35;1.20;;;0.80;;
43696;SDS011;29301;47.620;19.560;2022-11-20T05:40:01;1.20;;;0.80;;
43696;SDS011;29301;47.620;19.560;2022-11-20T05:42:29;1.20;;;0.80;;
43696;SDS011;29301;47.620;19.560;2022-11-20T05:44:59;1.20;;;0.80;;
43696;SDS011;29301;47.620;19.560;2022-11-20T05:47:28;1.10;;;0.80;;
43696;SDS011;29301;47.620;19.560;2022-11-20T05:49:57;1.20;;;0.80;;
43696;SDS011;29301;47.620;19.560;2022-11-20T05:52:23;1.10;;;0.75;;
43696;SDS011;29301;47.620;19.560;2022-11-20T05:54:49;1.10;;;0.80;;
43696;SDS011;29301;47.620;19.560;2022-11-20T05:57:15;1.20;;;0.80;;
43696;SDS011;29301;47.620;19.560;2022-11-20T05:59:41;1.20;;;0.80;;
43696;SDS011;29301;47.620;19.560;2022-11-20T06:02:07;1.10;;;0.70;;
43696;SDS011;29301;47.620;19.560;2022-11-20T06:04:32;1.10;;;0.80;;
43696;SDS011;29301;47.620;19.560;2022-11-20T06:06:58;1.20;;;0.80;;
43696;SDS011;29301;47.620;19.560;2022-11-20T06:09:24;1.20;;;0.80;;
43696;SDS011;29301;47.620;19.560;2022-11-20T06:11:49;1.20;;;0.80;;
43696;SDS011;29301;47.620;19.560;2022-11-20T06:14:15;1.20;;;0.80;;
43696;SDS011;29301;47.620;19.560;2022-11-20T06:16:40;1.20;;;0.80;;
43696;SDS011;29301;47.620;19.560;2022-11-20T06:19:06;1.20;;;0.80;;
43696;SDS011;29301;47.620;19.560;2022-11-20T06:21:32;1.20;;;0.80;;
43696;SDS011;29301;47.620;19.560;2022-11-20T06:23:58;1.30;;;0.90;;
43696;SDS011;29301;47.620;19.560;2022-11-20T06:26:24;1.30;;;0.80;;
43696;SDS011;29301;47.620;19.560;2022-11-20T06:28:52;1.20;;;0.80;;
43696;SDS011;29301;47.620;19.560;2022-11-20T06:31:21;1.15;;;0.80;;
43696;SDS011;29301;47.620;19.560;2022-11-20T06:33:49;1.20;;;0.80;;
43696;SDS011;29301;47.620;19.560;2022-11-20T06:36:16;1.20;;;0.80;;
43696;SDS011;29301;47.620;19.560;2022-11-20T06:38:43;1.20;;;0.90;;
43696;SDS011;29301;47.620;19.560;2022-11-20T06:41:10;1.20;;;0.80;;
43696;SDS011;29301;47.620;19.560;2022-11-20T06:43:40;1.20;;;0.80;;
43696;SDS011;29301;47.620;19.560;2022-11-20T06:46:06;1.30;;;0.90;;
43696;SDS011;29301;47.620;19.560;2022-11-20T06:48:34;1.25;;;0.80;;
43696;SDS011;29301;47.620;19.560;2022-11-20T06:50:59;1.20;;;0.80;;
43696;SDS011;29301;47.620;19.560;2022-11-20T06:53:28;1.30;;;0.90;;
43696;SDS011;29301;47.620;19.560;2022-11-20T06:55:55;1.20;;;0.80;;
43696;SDS011;29301;47.620;19.560;2022-11-20T06:58:21;1.20;;;0.80;;
43696;SDS011;29301;47.620;19.560;2022-11-20T07:00:47;1.15;;;0.80;;
43696;SDS011;29301;47.620;19.560;2022-11-20T07:03:13;1.20;;;0.90;;
43696;SDS011;29301;47.620;19.560;2022-11-20T07:05:38;1.20;;;0.80;;
43696;SDS011;29301;47.620;19.560;2022-11-20T07:08:05;1.20;;;0.80;;
43696;SDS011;29301;47.620;19.560;2022-11-20T07:10:31;1.20;;;0.80;;
43696;SDS011;29301;47.620;19.560;2022-11-20T07:12:57;1.25;;;0.80;;
43696;SDS011;29301;47.620;19.560;2022-11-20T07:15:24;1.15;;;0.70;;
43696;SDS011;29301;47.620;19.560;2022-11-20T07:17:50;1.20;;;0.80;;
43696;SDS011;29301;47.620;19.560;2022-11-20T07:20:16;1.20;;;0.80;;
43696;SDS011;29301;47.620;19.560;2022-11-20T07:22:42;1.20;;;0.80;;
43696;SDS011;29301;47.620;19.560;2022-11-20T07:25:08;1.23;;;0.80;;
43696;SDS011;29301;47.620;19.560;2022-11-20T07:27:34;1.20;;;0.80;;
43696;SDS011;29301;47.620;19.560;2022-11-20T07:30:01;1.20;;;0.90;;
43696;SDS011;29301;47.620;19.560;2022-11-20T07:32:27;1.20;;;0.80;;
43696;SDS011;29301;47.620;19.560;2022-11-20T07:34:53;1.20;;;0.80;;
43696;SDS011;29301;47.620;19.560;2022-11-20T07:37:19;1.27;;;0.82;;
43696;SDS011;29301;47.620;19.560;2022-11-20T07:39:45;1.20;;;0.80;;
43696;SDS011;29301;47.620;19.560;2022-11-20T07:42:11;1.20;;;0.80;;
43696;SDS011;29301;47.620;19.560;2022-11-20T07:44:39;1.20;;;0.80;;
43696;SDS011;29301;47.620;19.560;2022-11-20T07:47:05;1.20;;;0.80;;
43696;SDS011;29301;47.620;19.560;2022-11-20T07:49:30;1.20;;;0.80;;
43696;SDS011;29301;47.620;19.560;2022-11-20T07:51:56;1.30;;;0.82;;
43696;SDS011;29301;47.620;19.560;2022-11-20T07:54:22;1.13;;;0.80;;
43696;SDS011;29301;47.620;19.560;2022-11-20T07:56:48;1.20;;;0.90;;
43696;SDS011;29301;47.620;19.560;2022-11-20T07:59:14;1.20;;;0.80;;
43696;SDS011;29301;47.620;19.560;2022-11-20T08:01:40;1.20;;;0.80;;
43696;SDS011;29301;47.620;19.560;2022-11-20T08:04:07;1.20;;;0.80;;
43696;SDS011;29301;47.620;19.560;2022-11-20T08:06:33;1.20;;;0.80;;
43696;SDS011;29301;47.620;19.560;2022-11-20T08:08:59;1.20;;;0.80;;
43696;SDS011;29301;47.620;19.560;2022-11-20T08:11:25;1.20;;;0.80;;
43696;SDS011;29301;47.620;19.560;2022-11-20T08:14:09;1.20;;;0.80;;
43696;SDS011;29301;47.620;19.560;2022-11-20T08:16:38;1.20;;;0.80;;
43696;SDS011;29301;47.620;19.560;2022-11-20T08:19:04;1.10;;;0.80;;
43696;SDS011;29301;47.620;19.560;2022-11-20T08:21:30;1.13;;;0.80;;
43696;SDS011;29301;47.620;19.560;2022-11-20T08:23:56;1.20;;;0.80;;
43696;SDS011;29301;47.620;19.560;2022-11-20T08:26:23;1.20;;;0.80;;
43696;SDS011;29301;47.620;19.560;2022-11-20T08:28:49;1.20;;;0.80;;
43696;SDS011;29301;47.620;19.560;2022-11-20T08:31:19;1.20;;;0.80;;
43696;SDS011;29301;47.620;19.560;2022-11-20T08:33:45;1.20;;;0.80;;
43696;SDS011;29301;47.620;19.560;2022-11-20T08:36:11;1.20;;;0.80;;
43696;SDS011;29301;47.620;19.560;2022-11-20T08:38:36;1.20;;;0.80;;
43696;SDS011;29301;47.620;19.560;2022-11-20T08:41:03;1.20;;;0.80;;
43696;SDS011;29301;47.620;19.560;2022-11-20T08:44:01;1.20;;;0.80;;
43696;SDS011;29301;47.620;19.560;2022-11-20T08:46:33;1.20;;;0.80;;
43696;SDS011;29301;47.620;19.560;2022-11-20T08:48:58;1.20;;;0.80;;
43696;SDS011;29301;47.620;19.560;2022-11-20T08:51:24;1.20;;;0.80;;
43696;SDS011;29301;47.620;19.560;2022-11-20T08:53:50;1.20;;;0.80;;
43696;SDS011;29301;47.620;19.560;2022-11-20T08:56:16;1.20;;;0.80;;
43696;SDS011;29301;47.620;19.560;2022-11-20T08:58:42;1.20;;;0.80;;
43696;SDS011;29301;47.620;19.560;2022-11-20T09:01:08;1.20;;;0.80;;
43696;SDS011;29301;47.620;19.560;2022-11-20T09:03:34;1.20;;;0.80;;
43696;SDS011;29301;47.620;19.560;2022-11-20T09:06:01;1.30;;;0.90;;
43696;SDS011;29301;47.620;19.560;2022-11-20T09:08:28;1.20;;;0.80;;
43696;SDS011;29301;47.620;19.560;2022-11-20T09:10:55;1.20;;;0.80;;
43696;SDS011;29301;47.620;19.560;2022-11-20T09:13:22;1.20;;;0.80;;
43696;SDS011;29301;47.620;19.560;2022-11-20T09:15:58;1.20;;;0.80;;
43696;SDS011;29301;47.620;19.560;2022-11-20T09:18:26;1.10;;;0.70;;
43696;SDS011;29301;47.620;19.560;2022-11-20T09:20:56;1.17;;;0.70;;
43696;SDS011;29301;47.620;19.560;2022-11-20T09:23:24;1.15;;;0.80;;
43696;SDS011;29301;47.620;19.560;2022-11-20T09:25:50;1.10;;;0.70;;
43696;SDS011;29301;47.620;19.560;2022-11-20T09:28:16;1.10;;;0.63;;
43696;SDS011;29301;47.620;19.560;2022-11-20T09:30:43;1.00;;;0.70;;
43696;SDS011;29301;47.620;19.560;2022-11-20T09:33:09;0.90;;;0.70;;
43696;SDS011;29301;47.620;19.560;2022-11-20T09:35:35;0.90;;;0.60;;
43696;SDS011;29301;47.620;19.560;2022-11-20T09:38:04;1.00;;;0.70;;
43696;SDS011;29301;47.620;19.560;2022-11-20T09:40:31;1.00;;;0.70;;
43696;SDS011;29301;47.620;19.560;2022-11-20T09:43:08;1.00;;;0.70;;
43696;SDS011;29301;47.620;19.560;2022-11-20T09:46:02;0.90;;;0.68;;
43696;SDS011;29301;47.620;19.560;2022-11-20T09:51:45;1.00;;;0.70;;
43696;SDS011;29301;47.620;19.560;2022-11-20T09:54:21;1.10;;;0.70;;
43696;SDS011;29301;47.620;19.560;2022-11-20T09:57:01;1.10;;;0.70;;
43696;SDS011;29301;47.620;19.560;2022-11-20T10:02:01;1.00;;;0.70;;
43696;SDS011;29301;47.620;19.560;2022-11-20T10:04:37;1.10;;;0.70;;
43696;SDS011;29301;47.620;19.560;2022-11-20T10:07:12;1.00;;;0.70;;
43696;SDS011;29301;47.620;19.560;2022-11-20T10:10:01;0.98;;;0.70;;
43696;SDS011;29301;47.620;19.560;2022-11-20T10:23:02;0.95;;;0.70;;
43696;SDS011;29301;47.620;19.560;2022-11-20T10:25:47;1.10;;;0.70;;
43696;SDS011;29301;47.620;19.560;2022-11-20T10:31:52;1.20;;;0.70;;
43696;SDS011;29301;47.620;19.560;2022-11-20T10:34:26;1.10;;;0.70;;
43696;SDS011;29301;47.620;19.560;2022-11-20T10:37:18;0.93;;;0.60;;
43696;SDS011;29301;47.620;19.560;2022-11-20T10:39:56;0.85;;;0.60;;
43696;SDS011;29301;47.620;19.560;2022-11-20T10:42:43;1.00;;;0.70;;
43696;SDS011;29301;47.620;19.560;2022-11-20T10:47:49;0.90;;;0.70;;
43696;SDS011;29301;47.620;19.560;2022-11-20T10:50:20;0.93;;;0.70;;
43696;SDS011;29301;47.620;19.560;2022-11-20T10:55:53;1.00;;;0.70;;
43696;SDS011;29301;47.620;19.560;2022-11-20T11:01:19;1.10;;;0.70;;
43696;SDS011;29301;47.620;19.560;2022-11-20T11:03:52;0.90;;;0.60;;
43696;SDS011;29301;47.620;19.560;2022-11-20T11:09:21;0.80;;;0.60;;
43696;SDS011;29301;47.620;19.560;2022-11-20T11:11:57;0.90;;;0.70;;
43696;SDS011;29301;47.620;19.560;2022-11-20T11:14:23;0.90;;;0.60;;
43696;SDS011;29301;47.620;19.560;2022-11-20T11:19:24;0.90;;;0.60;;
43696;SDS011;29301;47.620;19.560;2022-11-20T11:21:51;0.85;;;0.60;;
43696;SDS011;29301;47.620;19.560;2022-11-20T11:24:26;0.80;;;0.60;;
43696;SDS011;29301;47.620;19.560;2022-11-20T11:26:57;0.80;;;0.60;;
43696;SDS011;29301;47.620;19.560;2022-11-20T11:29:29;0.93;;;0.70;;
43696;SDS011;29301;47.620;19.560;2022-11-20T11:35:00;0.90;;;0.70;;
43696;SDS011;29301;47.620;19.560;2022-11-20T11:37:31;0.90;;;0.63;;
43696;SDS011;29301;47.620;19.560;2022-11-20T11:40:00;0.80;;;0.60;;
43696;SDS011;29301;47.620;19.560;2022-11-20T11:42:25;1.08;;;0.70;;
43696;SDS011;29301;47.620;19.560;2022-11-20T11:44:53;0.93;;;0.70;;
43696;SDS011;29301;47.620;19.560;2022-11-20T11:47:33;1.00;;;0.70;;
43696;SDS011;29301;47.620;19.560;2022-11-20T12:00:21;0.90;;;0.70;;
43696;SDS011;29301;47.620;19.560;2022-11-20T12:02:56;1.00;;;0.70;;
43696;SDS011;29301;47.620;19.560;2022-11-20T12:05:47;1.00;;;0.70;;
43696;SDS011;29301;47.620;19.560;2022-11-20T12:14:37;0.80;;;0.60;;
43696;SDS011;29301;47.620;19.560;2022-11-20T12:16:59;0.93;;;0.70;;
43696;SDS011;29301;47.620;19.560;2022-11-20T12:19:27;1.00;;;0.70;;
43696;SDS011;29301;47.620;19.560;2022-11-20T12:29:32;0.80;;;0.60;;
43696;SDS011;29301;47.620;19.560;2022-11-20T12:40:28;0.90;;;0.65;;
43696;SDS011;29301;47.620;19.560;2022-11-20T12:43:13;0.80;;;0.60;;
43696;SDS011;29301;47.620;19.560;2022-11-20T12:51:46;0.80;;;0.60;;
43696;SDS011;29301;47.620;19.560;2022-11-20T13:00:20;0.80;;;0.60;;
43696;SDS011;29301;47.620;19.560;2022-11-20T13:08:33;0.90;;;0.60;;
43696;SDS011;29301;47.620;19.560;2022-11-20T13:16:41;0.85;;;0.60;;
43696;SDS011;29301;47.620;19.560;2022-11-20T13:19:17;0.80;;;0.60;;
43696;SDS011;29301;47.620;19.560;2022-11-20T13:21:44;0.70;;;0.60;;
43696;SDS011;29301;47.620;19.560;2022-11-20T13:29:33;0.70;;;0.60;;
43696;SDS011;29301;47.620;19.560;2022-11-20T13:32:03;0.80;;;0.60;;
43696;SDS011;29301;47.620;19.560;2022-11-20T13:34:32;0.80;;;0.57;;
43696;SDS011;29301;47.620;19.560;2022-11-20T13:36:59;0.90;;;0.60;;
43696;SDS011;29301;47.620;19.560;2022-11-20T13:39:32;0.80;;;0.60;;
43696;SDS011;29301;47.620;19.560;2022-11-20T13:46:57;0.80;;;0.60;;
43696;SDS011;29301;47.620;19.560;2022-11-20T13:49:26;0.90;;;0.60;;
43696;SDS011;29301;47.620;19.560;2022-11-20T14:00:43;0.70;;;0.60;;
43696;SDS011;29301;47.620;19.560;2022-11-20T14:03:21;0.90;;;0.60;;
43696;SDS011;29301;47.620;19.560;2022-11-20T14:05:52;0.80;;;0.60;;
43696;SDS011;29301;47.620;19.560;2022-11-20T14:08:45;0.85;;;0.60;;
43696;SDS011;29301;47.620;19.560;2022-11-20T14:11:18;0.80;;;0.60;;
43696;SDS011;29301;47.620;19.560;2022-11-20T14:16:47;0.98;;;0.70;;
43696;SDS011;29301;47.620;19.560;2022-11-20T14:21:53;0.90;;;0.70;;
43696;SDS011;29301;47.620;19.560;2022-11-20T14:24:31;0.98;;;0.68;;
43696;SDS011;29301;47.620;19.560;2022-11-20T14:26:56;0.80;;;0.60;;
43696;SDS011;29301;47.620;19.560;2022-11-20T14:29:23;0.98;;;0.63;;
43696;SDS011;29301;47.620;19.560;2022-11-20T14:31:54;0.85;;;0.70;;
43696;SDS011;29301;47.620;19.560;2022-11-20T14:34:22;1.00;;;0.70;;
43696;SDS011;29301;47.620;19.560;2022-11-20T14:36:51;0.70;;;0.60;;
43696;SDS011;29301;47.620;19.560;2022-11-20T14:39:21;0.90;;;0.70;;
43696;SDS011;29301;47.620;19.560;2022-11-20T14:41:53;0.75;;;0.60;;
43696;SDS011;29301;47.620;19.560;2022-11-20T14:44:27;0.80;;;0.52;;
43696;SDS011;29301;47.620;19.560;2022-11-20T14:46:57;0.90;;;0.65;;
43696;SDS011;29301;47.620;19.560;2022-11-20T14:49:25;0.80;;;0.60;;
43696;SDS011;29301;47.620;19.560;2022-11-20T14:52:01;0.80;;;0.60;;
43696;SDS011;29301;47.620;19.560;2022-11-20T14:54:42;0.80;;;0.60;;
43696;SDS011;29301;47.620;19.560;2022-11-20T14:57:18;0.80;;;0.60;;
43696;SDS011;29301;47.620;19.560;2022-11-20T14:59:47;0.80;;;0.60;;
43696;SDS011;29301;47.620;19.560;2022-11-20T15:02:13;0.90;;;0.60;;
43696;SDS011;29301;47.620;19.560;2022-11-20T15:04:48;0.80;;;0.60;;
43696;SDS011;29301;47.620;19.560;2022-11-20T15:07:25;0.90;;;0.70;;
43696;SDS011;29301;47.620;19.560;2022-11-20T15:10:04;1.00;;;0.70;;
43696;SDS011;29301;47.620;19.560;2022-11-20T15:12:37;0.80;;;0.60;;
43696;SDS011;29301;47.620;19.560;2022-11-20T15:15:15;0.80;;;0.60;;
43696;SDS011;29301;47.620;19.560;2022-11-20T15:17:45;0.80;;;0.60;;
43696;SDS011;29301;47.620;19.560;2022-11-20T15:20:13;1.05;;;0.70;;
43696;SDS011;29301;47.620;19.560;2022-11-20T15:22:40;0.80;;;0.60;;
43696;SDS011;29301;47.620;19.560;2022-11-20T15:25:16;0.80;;;0.60;;
43696;SDS011;29301;47.620;19.560;2022-11-20T15:27:43;0.82;;;0.60;;
43696;SDS011;29301;47.620;19.560;2022-11-20T15:30:16;0.90;;;0.68;;
43696;SDS011;29301;47.620;19.560;2022-11-20T15:32:44;0.90;;;0.70;;
43696;SDS011;29301;47.620;19.560;2022-11-20T15:35:11;0.90;;;0.70;;
43696;SDS011;29301;47.620;19.560;2022-11-20T15:37:37;0.80;;;0.60;;
43696;SDS011;29301;47.620;19.560;2022-11-20T15:40:04;0.80;;;0.60;;
43696;SDS011;29301;47.620;19.560;2022-11-20T15:42:31;1.00;;;0.70;;
43696;SDS011;29301;47.620;19.560;2022-11-20T15:44:57;0.80;;;0.60;;
43696;SDS011;29301;47.620;19.560;2022-11-20T15:47:25;1.00;;;0.63;;
43696;SDS011;29301;47.620;19.560;2022-11-20T15:49:56;0.80;;;0.60;;
43696;SDS011;29301;47.620;19.560;2022-11-20T15:52:22;0.90;;;0.60;;
43696;SDS011;29301;47.620;19.560;2022-11-20T15:54:48;0.80;;;0.60;;
43696;SDS011;29301;47.620;19.560;2022-11-20T15:57:14;0.93;;;0.70;;
43696;SDS011;29301;47.620;19.560;2022-11-20T15:59:39;0.90;;;0.60;;
43696;SDS011;29301;47.620;19.560;2022-11-20T16:02:12;0.80;;;0.60;;
43696;SDS011;29301;47.620;19.560;2022-11-20T16:04:39;1.00;;;0.70;;
43696;SDS011;29301;47.620;19.560;2022-11-20T16:07:04;0.90;;;0.70;;
43696;SDS011;29301;47.620;19.560;2022-11-20T16:09:30;0.80;;;0.60;;
43696;SDS011;29301;47.620;19.560;2022-11-20T16:11:56;1.00;;;0.70;;
43696;SDS011;29301;47.620;19.560;2022-11-20T16:14:24;1.00;;;0.70;;
43696;SDS011;29301;47.620;19.560;2022-11-20T16:17:11;0.90;;;0.70;;
43696;SDS011;29301;47.620;19.560;2022-11-20T16:19:37;0.85;;;0.60;;
43696;SDS011;29301;47.620;19.560;2022-11-20T16:22:03;0.85;;;0.60;;
43696;SDS011;29301;47.620;19.560;2022-11-20T16:24:28;0.85;;;0.60;;
43696;SDS011;29301;47.620;19.560;2022-11-20T16:26:55;0.93;;;0.70;;
43696;SDS011;29301;47.620;19.560;2022-11-20T16:29:21;0.80;;;0.60;;
43696;SDS011;29301;47.620;19.560;2022-11-20T16:31:47;1.10;;;0.70;;
43696;SDS011;29301;47.620;19.560;2022-11-20T16:34:12;0.80;;;0.60;;
43696;SDS011;29301;47.620;19.560;2022-11-20T16:36:41;0.90;;;0.65;;
43696;SDS011;29301;47.620;19.560;2022-11-20T16:39:08;1.05;;;0.70;;
43696;SDS011;29301;47.620;19.560;2022-11-20T16:41:34;0.90;;;0.70;;
43696;SDS011;29301;47.620;19.560;2022-11-20T16:44:02;1.00;;;0.70;;
43696;SDS011;29301;47.620;19.560;2022-11-20T16:46:32;0.90;;;0.60;;
43696;SDS011;29301;47.620;19.560;2022-11-20T16:49:05;0.90;;;0.68;;